Time;durP1;ratioP1;P1;durP2;ratioP2;P2;SDS_P1;SDS_P2;PMS_P1;PMS_P2;Temp;Humidity;BMP_temperature;BMP_pressure;BME280_temperature;BME280_humidity;BME280_pressure;Samples;Min_cycle;Max_cycle;Signal;HPM_P1;HPM_P2
2023/09/13 00:01:56;;;;;;;25.33;20.95;;;;;;;;;;5010337;27;99266;-61
2023/09/13 00:04:23;;;;;;;26.80;23.52;;;;;;;;;;5009929;27;100508;-61
2023/09/13 00:06:50;;;;;;;23.38;20.00;;;;;;;;;;5010487;27;98686;-61
2023/09/13 00:09:16;;;;;;;24.23;20.30;;;;;;;;;;5014894;27;99217;-61
2023/09/13 00:11:43;;;;;;;26.10;19.55;;;;;;;;;;5009769;27;99240;-61
2023/09/13 00:14:09;;;;;;;26.70;18.88;;;;;;;;;;5007884;27;99171;-61
2023/09/13 00:16:35;;;;;;;28.67;20.15;;;;;;;;;;5009652;27;99543;-61
2023/09/13 00:19:04;;;;;;;29.33;26.27;;;;;;;;;;5012349;27;99743;-61
2023/09/13 00:21:31;;;;;;;25.27;21.00;;;;;;;;;;5010368;27;99247;-61
2023/09/13 00:23:58;;;;;;;25.05;22.50;;;;;;;;;;5009554;27;98645;-61
2023/09/13 00:26:24;;;;;;;30.52;23.05;;;;;;;;;;5009362;27;98667;-61
2023/09/13 00:28:51;;;;;;;30.42;22.55;;;;;;;;;;5010127;27;100163;-61
2023/09/13 00:31:17;;;;;;;22.42;19.95;;;;;;;;;;5009758;27;99653;-61
2023/09/13 00:33:44;;;;;;;33.50;27.83;;;;;;;;;;5009643;27;98076;-61
2023/09/13 00:36:10;;;;;;;33.10;27.08;;;;;;;;;;5010361;27;99075;-61
2023/09/13 00:38:37;;;;;;;28.17;20.65;;;;;;;;;;5013522;27;99677;-62
2023/09/13 00:41:03;;;;;;;22.58;19.30;;;;;;;;;;5012522;27;99713;-61
2023/09/13 00:43:29;;;;;;;24.17;19.98;;;;;;;;;;5009371;27;100481;-61
2023/09/13 00:45:56;;;;;;;23.95;19.15;;;;;;;;;;5008817;27;98620;-61
2023/09/13 00:48:23;;;;;;;33.20;25.17;;;;;;;;;;5014051;27;100208;-60
2023/09/13 00:50:50;;;;;;;23.80;20.42;;;;;;;;;;5008399;27;99585;-60
2023/09/13 00:53:20;;;;;;;23.35;18.67;;;;;;;;;;5009230;27;98544;-60
2023/09/13 00:55:49;;;;;;;22.52;20.10;;;;;;;;;;5009180;27;101116;-61
2023/09/13 00:58:18;;;;;;;18.02;16.13;;;;;;;;;;5013049;27;98715;-60
2023/09/13 01:00:45;;;;;;;22.42;20.08;;;;;;;;;;5008862;27;98535;-61
2023/09/13 01:03:14;;;;;;;24.10;16.92;;;;;;;;;;5015929;27;99415;-60
2023/09/13 01:05:41;;;;;;;20.27;16.65;;;;;;;;;;5008417;27;99693;-61
2023/09/13 01:08:07;;;;;;;25.05;22.42;;;;;;;;;;5009217;27;100286;-61
2023/09/13 01:10:34;;;;;;;23.38;18.65;;;;;;;;;;5008499;27;100053;-61
2023/09/13 01:13:00;;;;;;;18.92;15.55;;;;;;;;;;5008963;27;99013;-60
2023/09/13 01:15:28;;;;;;;18.33;16.05;;;;;;;;;;5009004;27;99361;-61
2023/09/13 01:17:54;;;;;;;24.27;19.65;;;;;;;;;;5009508;27;99465;-61
2023/09/13 01:20:30;;;;;;;21.10;13.85;;;;;;;;;;5008738;27;98509;-61
2023/09/13 01:23:05;;;;;;;20.02;15.90;;;;;;;;;;5012350;27;100240;-60
2023/09/13 01:25:34;;;;;;;26.30;16.77;;;;;;;;;;5008237;27;98472;-60
2023/09/13 01:28:07;;;;;;;19.55;14.35;;;;;;;;;;5008974;27;100253;-60
2023/09/13 01:30:34;;;;;;;17.52;13.18;;;;;;;;;;5007708;27;100570;-61
2023/09/13 01:33:01;;;;;;;18.35;14.45;;;;;;;;;;5008918;27;98363;-61
2023/09/13 01:35:27;;;;;;;18.25;14.30;;;;;;;;;;5014239;27;99252;-61
2023/09/13 01:37:54;;;;;;;19.83;13.15;;;;;;;;;;5008511;27;99621;-61
2023/09/13 01:40:22;;;;;;;15.68;13.13;;;;;;;;;;5011067;27;98457;-60
2023/09/13 01:42:48;;;;;;;17.33;12.93;;;;;;;;;;5009166;27;99235;-61
2023/09/13 01:45:15;;;;;;;14.32;12.93;;;;;;;;;;5010792;27;100509;-61
2023/09/13 01:47:42;;;;;;;15.63;13.80;;;;;;;;;;5009301;27;99318;-61
2023/09/13 01:50:10;;;;;;;13.02;11.68;;;;;;;;;;5008615;27;99511;-61
2023/09/13 01:52:36;;;;;;;14.38;12.98;;;;;;;;;;5008658;27;98549;-61
2023/09/13 01:55:06;;;;;;;17.30;15.15;;;;;;;;;;5007986;27;99575;-61
2023/09/13 01:57:33;;;;;;;17.98;14.15;;;;;;;;;;5008032;27;99547;-60
2023/09/13 01:59:59;;;;;;;16.67;13.30;;;;;;;;;;5009158;27;98494;-61
2023/09/13 02:02:26;;;;;;;13.27;11.75;;;;;;;;;;5008257;27;99177;-61
2023/09/13 02:04:52;;;;;;;13.70;11.13;;;;;;;;;;5011824;27;99492;-61
2023/09/13 02:07:20;;;;;;;13.77;9.40;;;;;;;;;;5010789;27;98890;-61
2023/09/13 02:09:46;;;;;;;10.40;8.15;;;;;;;;;;5008890;27;99653;-61
2023/09/13 02:12:13;;;;;;;9.73;7.93;;;;;;;;;;5009187;27;97958;-61
2023/09/13 02:14:39;;;;;;;13.55;9.52;;;;;;;;;;5012266;27;98643;-61
2023/09/13 02:17:06;;;;;;;10.63;9.32;;;;;;;;;;5009764;27;99510;-61
2023/09/13 02:19:32;;;;;;;14.15;12.80;;;;;;;;;;5012527;27;99309;-61
2023/09/13 02:21:59;;;;;;;13.55;8.90;;;;;;;;;;5007626;27;100261;-61
2023/09/13 02:24:25;;;;;;;13.82;10.05;;;;;;;;;;5008020;28;100923;-60
2023/09/13 02:26:55;;;;;;;15.63;11.77;;;;;;;;;;5007955;27;98743;-61
2023/09/13 02:29:22;;;;;;;10.38;9.27;;;;;;;;;;5010945;27;99405;-60
2023/09/13 02:31:49;;;;;;;11.77;10.63;;;;;;;;;;5008294;27;98529;-61
2023/09/13 02:34:15;;;;;;;12.10;10.98;;;;;;;;;;5007492;27;99167;-61
2023/09/13 02:36:41;;;;;;;12.82;11.70;;;;;;;;;;5010344;27;98809;-60
2023/09/13 02:39:26;;;;;;;14.13;12.70;;;;;;;;;;5011408;27;98733;-61
2023/09/13 02:41:53;;;;;;;20.13;18.25;;;;;;;;;;5011466;27;99206;-61
2023/09/13 02:44:20;;;;;;;18.17;16.50;;;;;;;;;;5018067;27;101289;-61
2023/09/13 02:46:46;;;;;;;19.15;16.88;;;;;;;;;;5017587;27;98931;-61
2023/09/13 02:49:12;;;;;;;16.83;14.52;;;;;;;;;;5018129;27;99093;-61
2023/09/13 02:51:39;;;;;;;19.05;16.15;;;;;;;;;;5018194;27;99483;-61
2023/09/13 02:54:05;;;;;;;17.35;15.20;;;;;;;;;;5010858;27;99213;-61
2023/09/13 02:56:31;;;;;;;22.30;18.40;;;;;;;;;;5010169;27;99791;-60
2023/09/13 02:58:58;;;;;;;20.63;18.13;;;;;;;;;;5013575;27;98651;-61
2023/09/13 03:01:24;;;;;;;29.55;21.20;;;;;;;;;;5013787;27;99251;-61
2023/09/13 03:03:51;;;;;;;22.67;18.27;;;;;;;;;;5010374;27;99359;-61
2023/09/13 03:06:17;;;;;;;26.33;19.48;;;;;;;;;;5011252;27;99112;-61
2023/09/13 03:08:44;;;;;;;24.92;21.00;;;;;;;;;;5017187;27;100247;-61
2023/09/13 03:11:11;;;;;;;27.10;21.45;;;;;;;;;;5010390;27;99447;-61
2023/09/13 03:13:37;;;;;;;28.83;21.95;;;;;;;;;;5013598;27;98852;-62
2023/09/13 03:16:30;;;;;;;28.30;22.75;;;;;;;;;;5017755;27;99287;-61
2023/09/13 03:18:57;;;;;;;33.80;27.73;;;;;;;;;;5015875;27;98579;-61
2023/09/13 03:21:24;;;;;;;33.65;29.17;;;;;;;;;;5016179;27;99172;-61
2023/09/13 03:23:51;;;;;;;32.05;27.30;;;;;;;;;;5010473;27;100722;-62
2023/09/13 03:26:24;;;;;;;36.67;28.52;;;;;;;;;;5010814;27;97890;-62
2023/09/13 03:28:51;;;;;;;37.22;28.48;;;;;;;;;;5010441;27;98569;-62
2023/09/13 03:31:19;;;;;;;41.67;28.75;;;;;;;;;;5011422;27;99454;-61
2023/09/13 03:33:46;;;;;;;36.25;29.42;;;;;;;;;;5016021;27;99391;-62
2023/09/13 03:36:13;;;;;;;44.58;35.65;;;;;;;;;;5009641;27;99501;-61
2023/09/13 03:38:41;;;;;;;43.42;32.63;;;;;;;;;;5010958;27;98553;-62
2023/09/13 03:41:08;;;;;;;41.50;32.65;;;;;;;;;;5010353;27;99207;-62
2023/09/13 03:43:34;;;;;;;37.45;29.88;;;;;;;;;;5010845;27;99404;-62
2023/09/13 03:46:01;;;;;;;36.05;29.85;;;;;;;;;;5011157;27;98608;-61
2023/09/13 03:48:29;;;;;;;44.60;34.22;;;;;;;;;;5010804;27;99424;-62
2023/09/13 03:50:55;;;;;;;43.83;34.95;;;;;;;;;;5010715;27;98788;-62
2023/09/13 03:53:21;;;;;;;48.58;35.10;;;;;;;;;;5010359;27;99003;-62
2023/09/13 03:55:47;;;;;;;51.22;38.03;;;;;;;;;;5012677;27;99166;-62
2023/09/13 03:58:14;;;;;;;41.08;35.47;;;;;;;;;;5009462;27;99438;-62
2023/09/13 04:00:40;;;;;;;51.67;40.50;;;;;;;;;;5010243;27;99884;-62
2023/09/13 04:03:07;;;;;;;50.97;39.67;;;;;;;;;;5018840;27;100493;-62
2023/09/13 04:05:33;;;;;;;46.67;32.22;;;;;;;;;;5009846;27;98697;-61
2023/09/13 04:08:00;;;;;;;46.55;38.58;;;;;;;;;;5010169;27;100355;-61
2023/09/13 04:10:26;;;;;;;54.30;36.60;;;;;;;;;;5010278;27;99836;-61
2023/09/13 04:12:53;;;;;;;46.45;35.70;;;;;;;;;;5009962;27;98866;-62
2023/09/13 04:15:19;;;;;;;51.40;41.85;;;;;;;;;;5013482;27;99206;-62
2023/09/13 04:17:45;;;;;;;59.30;41.58;;;;;;;;;;5014250;27;99619;-62
2023/09/13 04:20:12;;;;;;;64.63;50.28;;;;;;;;;;5010183;27;99299;-61
2023/09/13 04:22:38;;;;;;;59.13;43.97;;;;;;;;;;5008974;27;100370;-62
2023/09/13 04:25:05;;;;;;;69.05;50.35;;;;;;;;;;5013707;27;98609;-62
2023/09/13 04:27:32;;;;;;;66.93;49.53;;;;;;;;;;5010165;27;99817;-61
2023/09/13 04:29:58;;;;;;;68.10;50.20;;;;;;;;;;5009649;27;102258;-62
2023/09/13 04:32:25;;;;;;;75.55;52.63;;;;;;;;;;5009239;27;98542;-62
2023/09/13 04:34:55;;;;;;;78.20;53.90;;;;;;;;;;5009355;27;100229;-61
2023/09/13 04:37:21;;;;;;;65.03;49.03;;;;;;;;;;5008476;27;99436;-62
2023/09/13 04:39:48;;;;;;;71.18;49.78;;;;;;;;;;5012285;27;97891;-62
2023/09/13 04:42:14;;;;;;;68.00;48.92;;;;;;;;;;5013151;27;99816;-62
2023/09/13 04:44:40;;;;;;;71.85;52.40;;;;;;;;;;5009060;27;98493;-61
2023/09/13 04:47:07;;;;;;;69.40;51.05;;;;;;;;;;5015139;27;100288;-61
2023/09/13 04:49:35;;;;;;;77.05;57.38;;;;;;;;;;5009334;27;99421;-62
2023/09/13 04:52:02;;;;;;;71.07;49.25;;;;;;;;;;5008795;27;98684;-61
2023/09/13 04:54:29;;;;;;;75.28;55.42;;;;;;;;;;5013582;27;100289;-62
2023/09/13 04:56:55;;;;;;;59.90;44.95;;;;;;;;;;5013260;27;100440;-62
2023/09/13 04:59:24;;;;;;;73.65;49.85;;;;;;;;;;5012670;27;98655;-61
2023/09/13 05:01:50;;;;;;;74.53;53.30;;;;;;;;;;5016412;27;100277;-62
2023/09/13 05:04:16;;;;;;;70.80;47.53;;;;;;;;;;5013582;27;97950;-61
2023/09/13 05:06:43;;;;;;;75.53;54.10;;;;;;;;;;5020921;27;99535;-61
2023/09/13 05:09:09;;;;;;;73.85;51.92;;;;;;;;;;5009193;27;99417;-62
2023/09/13 05:11:36;;;;;;;87.90;58.03;;;;;;;;;;5008546;27;99421;-62
2023/09/13 05:14:11;;;;;;;76.47;51.92;;;;;;;;;;5008206;27;99491;-62
2023/09/13 05:16:37;;;;;;;73.25;48.90;;;;;;;;;;5012586;27;99400;-62
2023/09/13 05:19:04;;;;;;;76.60;53.85;;;;;;;;;;5009109;27;98565;-62
2023/09/13 05:21:30;;;;;;;78.57;52.28;;;;;;;;;;5008490;27;99215;-62
2023/09/13 05:23:57;;;;;;;80.07;57.53;;;;;;;;;;5011731;27;99513;-62
2023/09/13 05:26:23;;;;;;;69.03;50.05;;;;;;;;;;5008048;27;99265;-62
2023/09/13 05:28:49;;;;;;;69.72;51.75;;;;;;;;;;5009354;27;98811;-62
2023/09/13 05:31:16;;;;;;;70.97;48.53;;;;;;;;;;5008660;27;98512;-61
2023/09/13 05:33:42;;;;;;;81.53;60.35;;;;;;;;;;5012388;27;99225;-61
2023/09/13 05:36:09;;;;;;;78.03;57.30;;;;;;;;;;5007521;28;104583;-61
2023/09/13 05:38:36;;;;;;;73.40;49.50;;;;;;;;;;5008275;27;98592;-62
2023/09/13 05:41:07;;;;;;;80.05;54.67;;;;;;;;;;5007906;27;99268;-61
2023/09/13 05:43:37;;;;;;;81.60;54.38;;;;;;;;;;5011201;27;100502;-62
2023/09/13 05:46:03;;;;;;;77.55;52.10;;;;;;;;;;5010246;27;99260;-62
2023/09/13 05:48:30;;;;;;;78.25;54.78;;;;;;;;;;5009750;27;99514;-61
2023/09/13 05:50:57;;;;;;;74.57;51.20;;;;;;;;;;5008146;27;98538;-61
2023/09/13 05:53:23;;;;;;;75.45;50.42;;;;;;;;;;5008720;27;100259;-61
2023/09/13 05:55:50;;;;;;;67.70;45.58;;;;;;;;;;5007500;27;99493;-61
2023/09/13 05:58:16;;;;;;;86.13;69.00;;;;;;;;;;5008714;27;98486;-60
2023/09/13 06:00:45;;;;;;;55.80;34.45;;;;;;;;;;5007683;27;100709;-61
2023/09/13 06:03:11;;;;;;;22.25;15.27;;;;;;;;;;5007206;27;99756;-60
2023/09/13 06:05:38;;;;;;;23.48;17.08;;;;;;;;;;5011809;27;98608;-60
2023/09/13 06:08:04;;;;;;;12.82;9.52;;;;;;;;;;5009155;27;100526;-63
2023/09/13 06:10:31;;;;;;;9.45;8.40;;;;;;;;;;5008591;27;98588;-62
2023/09/13 06:12:57;;;;;;;8.55;7.47;;;;;;;;;;5007841;27;99150;-61
2023/09/13 06:15:23;;;;;;;8.95;6.90;;;;;;;;;;5017229;27;99480;-61
2023/09/13 06:17:51;;;;;;;8.68;7.90;;;;;;;;;;5018045;27;97849;-61
2023/09/13 06:20:18;;;;;;;5.82;5.20;;;;;;;;;;5008658;27;98650;-62
2023/09/13 06:22:44;;;;;;;7.18;5.53;;;;;;;;;;5008046;27;99475;-61
2023/09/13 06:25:10;;;;;;;6.03;5.18;;;;;;;;;;5007789;27;99453;-61
2023/09/13 06:27:37;;;;;;;7.72;4.20;;;;;;;;;;5011823;27;101400;-62
2023/09/13 06:30:04;;;;;;;4.22;3.63;;;;;;;;;;5010774;27;98562;-62
2023/09/13 06:32:30;;;;;;;3.25;2.75;;;;;;;;;;5009633;27;99195;-62
2023/09/13 06:35:13;;;;;;;4.25;2.30;;;;;;;;;;5011874;27;101429;-62
2023/09/13 06:37:42;;;;;;;4.95;4.65;;;;;;;;;;5007943;27;98744;-61
2023/09/13 06:40:10;;;;;;;11.40;3.92;;;;;;;;;;5008315;27;99258;-62
2023/09/13 06:42:36;;;;;;;2.35;2.08;;;;;;;;;;5010537;27;98712;-61
2023/09/13 06:45:23;;;;;;;4.53;2.55;;;;;;;;;;5008356;27;98690;-62
2023/09/13 06:47:53;;;;;;;8.05;7.40;;;;;;;;;;5011615;27;100225;-61
2023/09/13 06:50:20;;;;;;;5.63;5.22;;;;;;;;;;5010942;27;101365;-63
2023/09/13 06:53:06;;;;;;;18.38;15.48;;;;;;;;;;5012113;27;99502;-62
2023/09/13 06:55:52;;;;;;;6.82;6.32;;;;;;;;;;5006584;27;101105;-62
2023/09/13 06:58:21;;;;;;;5.85;5.45;;;;;;;;;;5012181;27;98532;-62
2023/09/13 07:00:51;;;;;;;3.92;2.72;;;;;;;;;;5007684;27;99263;-62
2023/09/13 07:03:37;;;;;;;4.88;4.47;;;;;;;;;;5007140;27;99633;-62
2023/09/13 07:06:07;;;;;;;6.03;5.03;;;;;;;;;;5007940;27;98553;-61
2023/09/13 07:08:34;;;;;;;5.32;4.85;;;;;;;;;;5010215;27;100396;-62
2023/09/13 07:11:01;;;;;;;6.97;6.38;;;;;;;;;;5016073;27;99488;-62
2023/09/13 07:13:28;;;;;;;5.28;4.88;;;;;;;;;;5010798;27;98725;-61
2023/09/13 07:15:54;;;;;;;6.53;5.78;;;;;;;;;;5007129;27;100168;-62
2023/09/13 07:18:21;;;;;;;8.45;5.80;;;;;;;;;;5010992;27;98545;-62
2023/09/13 07:20:47;;;;;;;6.60;4.57;;;;;;;;;;5011135;27;100269;-61
2023/09/13 07:23:13;;;;;;;4.97;4.32;;;;;;;;;;5015996;27;99590;-61
2023/09/13 07:25:40;;;;;;;7.13;3.67;;;;;;;;;;5018594;27;98695;-62
2023/09/13 07:28:07;;;;;;;4.38;3.30;;;;;;;;;;5016456;27;100157;-62
2023/09/13 07:30:33;;;;;;;8.23;2.65;;;;;;;;;;5010155;27;99622;-62
2023/09/13 07:33:00;;;;;;;7.45;3.00;;;;;;;;;;5016302;27;97832;-62
2023/09/13 07:35:26;;;;;;;6.22;2.45;;;;;;;;;;5018642;27;99814;-62
2023/09/13 07:37:53;;;;;;;6.93;2.60;;;;;;;;;;5011282;27;98797;-62
2023/09/13 07:40:23;;;;;;;5.25;2.80;;;;;;;;;;5010598;27;99421;-61
2023/09/13 07:42:50;;;;;;;10.43;3.30;;;;;;;;;;5031091;27;100532;-62
2023/09/13 07:45:16;;;;;;;8.68;2.58;;;;;;;;;;5011052;27;98477;-61
2023/09/13 07:47:42;;;;;;;8.90;3.30;;;;;;;;;;5019169;27;98968;-61
2023/09/13 07:50:29;;;;;;;7.97;2.83;;;;;;;;;;5010145;27;99573;-61
2023/09/13 07:52:56;;;;;;;12.73;3.47;;;;;;;;;;5011134;27;98632;-61
2023/09/13 07:55:31;;;;;;;7.00;1.90;;;;;;;;;;5014466;27;99196;-62
2023/09/13 07:57:58;;;;;;;8.65;2.53;;;;;;;;;;5015740;27;98031;-61
2023/09/13 08:00:24;;;;;;;5.63;2.80;;;;;;;;;;5010566;27;98633;-62
2023/09/13 08:02:50;;;;;;;6.13;2.60;;;;;;;;;;5010078;27;100913;-62
2023/09/13 08:05:17;;;;;;;8.90;2.30;;;;;;;;;;5010665;27;99628;-62
2023/09/13 08:07:44;;;;;;;5.55;2.17;;;;;;;;;;5012455;27;99971;-62
2023/09/13 08:10:11;;;;;;;6.15;2.00;;;;;;;;;;5009744;27;100200;-62
2023/09/13 08:12:37;;;;;;;4.80;1.90;;;;;;;;;;5010844;27;98543;-68
2023/09/13 08:15:04;;;;;;;7.68;2.45;;;;;;;;;;5009885;27;99317;-62
2023/09/13 08:17:31;;;;;;;7.97;2.00;;;;;;;;;;5016282;27;100613;-62
2023/09/13 08:19:58;;;;;;;3.67;2.58;;;;;;;;;;5010577;27;99497;-62
2023/09/13 08:22:25;;;;;;;6.82;2.47;;;;;;;;;;5014314;27;99919;-61
2023/09/13 08:25:04;;;;;;;5.03;1.93;;;;;;;;;;5010382;27;98832;-62
2023/09/13 08:27:36;;;;;;;3.70;1.70;;;;;;;;;;5009451;27;99233;-61
2023/09/13 08:30:03;;;;;;;9.90;1.80;;;;;;;;;;5021038;27;101240;-62
2023/09/13 08:32:30;;;;;;;4.03;1.90;;;;;;;;;;5014910;27;98609;-62
2023/09/13 08:34:56;;;;;;;5.43;2.33;;;;;;;;;;5008465;27;99096;-62
2023/09/13 08:37:24;;;;;;;5.72;1.83;;;;;;;;;;5010594;27;100542;-62
2023/09/13 08:39:50;;;;;;;4.72;1.60;;;;;;;;;;5017281;27;98530;-62
2023/09/13 08:42:17;;;;;;;2.55;1.73;;;;;;;;;;5009650;27;102198;-62
2023/09/13 08:44:44;;;;;;;4.18;2.00;;;;;;;;;;5010071;27;98738;-61
2023/09/13 08:47:11;;;;;;;9.98;2.00;;;;;;;;;;5013494;27;99094;-61
2023/09/13 08:49:38;;;;;;;7.40;1.70;;;;;;;;;;5008792;27;99490;-62
2023/09/13 08:52:05;;;;;;;3.95;1.42;;;;;;;;;;5022309;27;98514;-62
2023/09/13 08:54:32;;;;;;;6.32;1.70;;;;;;;;;;5009314;27;100228;-61
2023/09/13 08:57:20;;;;;;;7.90;1.90;;;;;;;;;;5018427;27;101634;-62
2023/09/13 08:59:47;;;;;;;5.80;1.45;;;;;;;;;;5009408;27;98651;-62
2023/09/13 09:02:15;;;;;;;4.82;1.40;;;;;;;;;;5017582;27;100682;-61
2023/09/13 09:04:42;;;;;;;3.83;1.10;;;;;;;;;;5012299;27;98786;-61
2023/09/13 09:07:09;;;;;;;2.95;1.65;;;;;;;;;;5014067;27;101442;-61
2023/09/13 09:09:36;;;;;;;4.60;1.63;;;;;;;;;;5011085;27;99498;-61
2023/09/13 09:12:03;;;;;;;3.25;1.30;;;;;;;;;;5014180;27;98331;-61
2023/09/13 09:14:31;;;;;;;5.38;1.83;;;;;;;;;;5014144;27;98481;-61
2023/09/13 09:16:58;;;;;;;5.75;1.67;;;;;;;;;;5011237;27;100776;-61
2023/09/13 09:19:26;;;;;;;3.20;1.48;;;;;;;;;;5014848;27;99869;-61
2023/09/13 09:21:52;;;;;;;4.57;1.75;;;;;;;;;;5012298;27;99809;-61
2023/09/13 09:24:20;;;;;;;4.30;1.80;;;;;;;;;;5012426;27;99499;-61
2023/09/13 09:26:47;;;;;;;5.05;1.77;;;;;;;;;;5010130;27;99088;-61
2023/09/13 09:29:14;;;;;;;5.95;1.98;;;;;;;;;;5008998;27;100890;-61
2023/09/13 09:31:41;;;;;;;6.88;1.60;;;;;;;;;;5009763;27;98792;-61
2023/09/13 09:34:08;;;;;;;4.53;2.05;;;;;;;;;;5009657;27;99126;-61
2023/09/13 09:36:41;;;;;;;4.20;1.75;;;;;;;;;;5008900;27;98676;-61
2023/09/13 09:39:08;;;;;;;5.40;1.58;;;;;;;;;;5008852;27;98412;-61
2023/09/13 09:41:35;;;;;;;6.53;1.98;;;;;;;;;;5008858;27;99036;-61
2023/09/13 09:44:02;;;;;;;6.05;2.22;;;;;;;;;;5008943;27;100177;-61
2023/09/13 09:46:32;;;;;;;6.22;1.95;;;;;;;;;;5016180;27;98874;-61
2023/09/13 09:49:02;;;;;;;5.95;2.20;;;;;;;;;;5013471;27;99450;-61
2023/09/13 09:51:29;;;;;;;5.95;2.00;;;;;;;;;;5012262;27;98506;-61
2023/09/13 09:53:56;;;;;;;4.95;1.90;;;;;;;;;;5012538;27;99189;-61
2023/09/13 09:56:22;;;;;;;4.80;2.05;;;;;;;;;;5008806;27;99479;-61
2023/09/13 09:58:49;;;;;;;8.45;2.17;;;;;;;;;;5013032;27;99302;-61
2023/09/13 10:01:16;;;;;;;8.95;1.83;;;;;;;;;;5013106;27;99214;-61
2023/09/13 10:03:43;;;;;;;4.03;1.90;;;;;;;;;;5008406;27;100489;-61
2023/09/13 10:06:14;;;;;;;5.70;2.15;;;;;;;;;;5016673;27;98422;-61
2023/09/13 10:08:41;;;;;;;;;;;;;;;;;;5007866;27;100258;-59
2023/09/13 10:11:12;;;;;;;5.43;2.13;;;;;;;;;;5008946;27;118471;-61
2023/09/13 10:13:39;;;;;;;9.00;2.78;;;;;;;;;;5008342;27;99231;-61
2023/09/13 10:16:06;;;;;;;8.15;2.53;;;;;;;;;;5009142;27;99447;-61
2023/09/13 10:18:36;;;;;;;5.72;2.22;;;;;;;;;;5012046;27;98613;-61
2023/09/13 10:21:04;;;;;;;6.80;2.08;;;;;;;;;;5012659;27;99246;-61
2023/09/13 10:23:40;;;;;;;4.63;1.80;;;;;;;;;;5007651;27;99433;-61
2023/09/13 10:26:08;;;;;;;6.45;1.70;;;;;;;;;;5011957;27;97967;-62
2023/09/13 10:28:35;;;;;;;5.30;2.00;;;;;;;;;;5011675;27;99484;-62
2023/09/13 10:31:05;;;;;;;9.10;2.15;;;;;;;;;;5012020;27;98544;-61
2023/09/13 10:33:34;;;;;;;5.22;2.28;;;;;;;;;;5007421;27;99347;-61
2023/09/13 10:36:02;;;;;;;6.60;2.13;;;;;;;;;;5008319;27;99438;-62
2023/09/13 10:38:35;;;;;;;8.20;2.30;;;;;;;;;;5008645;27;98493;-61
2023/09/13 10:41:03;;;;;;;8.82;2.30;;;;;;;;;;5007879;27;99002;-62
2023/09/13 10:43:30;;;;;;;8.52;2.53;;;;;;;;;;5008570;27;99481;-62
2023/09/13 10:45:57;;;;;;;6.60;2.08;;;;;;;;;;5007394;27;98594;-62
2023/09/13 10:48:24;;;;;;;3.83;1.70;;;;;;;;;;5012956;27;99410;-62
2023/09/13 10:50:51;;;;;;;4.57;1.92;;;;;;;;;;5011749;27;98895;-61
2023/09/13 10:53:18;;;;;;;8.20;2.10;;;;;;;;;;5007544;27;99030;-62
2023/09/13 10:55:45;;;;;;;9.60;2.22;;;;;;;;;;5007894;27;99662;-62
2023/09/13 10:58:18;;;;;;;6.55;1.67;;;;;;;;;;5008566;27;99199;-62
2023/09/13 11:00:45;;;;;;;4.15;1.50;;;;;;;;;;5012106;27;99711;-62
2023/09/13 11:03:11;;;;;;;2.90;1.30;;;;;;;;;;5015474;27;100507;-62
2023/09/13 11:05:38;;;;;;;2.60;1.38;;;;;;;;;;5011636;27;98640;-62
2023/09/13 11:08:07;;;;;;;2.70;1.40;;;;;;;;;;5011816;27;99196;-62
2023/09/13 11:10:33;;;;;;;6.45;1.50;;;;;;;;;;5010997;27;100599;-62
2023/09/13 11:13:10;;;;;;;6.57;1.75;;;;;;;;;;5015323;27;99518;-62
2023/09/13 11:15:46;;;;;;;6.07;1.70;;;;;;;;;;5011569;27;99685;-61
2023/09/13 11:18:13;;;;;;;5.75;1.60;;;;;;;;;;5015945;27;98486;-62
2023/09/13 11:20:41;;;;;;;2.95;1.23;;;;;;;;;;5011996;27;99277;-61
2023/09/13 11:23:10;;;;;;;3.58;1.50;;;;;;;;;;5010350;27;101261;-61
2023/09/13 11:25:57;;;;;;;8.85;1.52;;;;;;;;;;5014748;27;98632;-61
2023/09/13 11:28:36;;;;;;;6.03;1.85;;;;;;;;;;5015960;27;99179;-61
2023/09/13 11:31:04;;;;;;;4.10;1.55;;;;;;;;;;5010577;27;99498;-61
2023/09/13 11:33:31;;;;;;;6.78;2.08;;;;;;;;;;5011499;27;98509;-62
2023/09/13 11:35:58;;;;;;;4.97;1.70;;;;;;;;;;5014067;27;100189;-61
2023/09/13 11:38:25;;;;;;;9.00;2.15;;;;;;;;;;5011172;27;98583;-61
2023/09/13 11:40:56;;;;;;;3.60;1.58;;;;;;;;;;5011839;27;100264;-61
2023/09/13 11:43:24;;;;;;;6.60;1.42;;;;;;;;;;5014831;27;100421;-61
2023/09/13 11:45:59;;;;;;;5.40;1.45;;;;;;;;;;5011177;27;98559;-61
2023/09/13 11:48:26;;;;;;;7.07;1.92;;;;;;;;;;5014600;27;99254;-61
2023/09/13 11:50:52;;;;;;;5.60;1.80;;;;;;;;;;5010562;27;99640;-61
2023/09/13 11:53:27;;;;;;;5.07;1.63;;;;;;;;;;5010536;27;98640;-61
2023/09/13 11:55:56;;;;;;;4.68;1.75;;;;;;;;;;5013547;27;98479;-61
2023/09/13 11:58:39;;;;;;;7.30;1.48;;;;;;;;;;5011258;27;98647;-61
2023/09/13 12:01:23;;;;;;;8.20;1.88;;;;;;;;;;5011625;27;100246;-61
2023/09/13 12:03:54;;;;;;;6.15;1.70;;;;;;;;;;5019405;27;101880;-61
2023/09/13 12:06:44;;;;;;;5.07;1.58;;;;;;;;;;5011015;27;97917;-60
2023/09/13 12:09:18;;;;;;;4.78;1.40;;;;;;;;;;5009309;27;98736;-60
2023/09/13 12:11:50;;;;;;;5.15;1.98;;;;;;;;;;5009932;27;99527;-61
2023/09/13 12:14:22;;;;;;;3.92;1.85;;;;;;;;;;5010138;27;99264;-60
2023/09/13 12:17:09;;;;;;;10.50;1.97;;;;;;;;;;5016048;27;102362;-60
2023/09/13 12:19:38;;;;;;;5.28;1.50;;;;;;;;;;5013210;27;99722;-60
2023/09/13 12:22:04;;;;;;;2.83;1.35;;;;;;;;;;5015199;27;100262;-60
2023/09/13 12:24:31;;;;;;;5.93;1.58;;;;;;;;;;5014031;27;100610;-61
2023/09/13 12:26:57;;;;;;;8.40;1.50;;;;;;;;;;5009839;27;98658;-60
2023/09/13 12:29:24;;;;;;;5.72;2.20;;;;;;;;;;5009203;27;99259;-60
2023/09/13 12:31:55;;;;;;;6.30;3.33;;;;;;;;;;5008867;27;98752;-61
2023/09/13 12:34:21;;;;;;;28.85;26.40;;;;;;;;;;5013830;27;98588;-60
2023/09/13 12:36:48;;;;;;;76.18;71.03;;;;;;;;;;5008602;27;99320;-61
2023/09/13 12:39:14;;;;;;;65.07;60.28;;;;;;;;;;5012682;27;100449;-58
2023/09/13 12:41:43;;;;;;;79.28;72.95;;;;;;;;;;5012220;27;98695;-59
2023/09/13 12:44:11;;;;;;;73.47;67.55;;;;;;;;;;5013246;27;100466;-59
2023/09/13 12:46:37;;;;;;;61.92;57.28;;;;;;;;;;5013266;27;98609;-59
2023/09/13 12:49:04;;;;;;;83.25;77.03;;;;;;;;;;5018193;27;100568;-59
2023/09/13 12:51:33;;;;;;;235.82;217.07;;;;;;;;;;5010107;27;101309;-59
2023/09/13 12:53:59;;;;;;;323.88;295.10;;;;;;;;;;5009225;27;98615;-59
2023/09/13 12:56:26;;;;;;;426.08;388.08;;;;;;;;;;5007784;27;99426;-59
2023/09/13 12:58:53;;;;;;;510.08;462.95;;;;;;;;;;5007952;27;99462;-58
2023/09/13 13:01:20;;;;;;;501.33;457.77;;;;;;;;;;5009692;27;98573;-60
2023/09/13 13:04:13;;;;;;;383.15;351.15;;;;;;;;;;5010787;27;99614;-61
2023/09/13 13:06:53;;;;;;;438.33;399.27;;;;;;;;;;5005714;27;99088;-58
2023/09/13 13:09:21;;;;;;;456.20;416.98;;;;;;;;;;5008207;27;99276;-60
2023/09/13 13:11:49;;;;;;;172.27;158.87;;;;;;;;;;5010093;27;99833;-60
2023/09/13 13:14:19;;;;;;;195.20;181.07;;;;;;;;;;5008461;27;98778;-61
2023/09/13 13:16:56;;;;;;;124.63;115.13;;;;;;;;;;5009787;27;99277;-61
2023/09/13 13:19:26;;;;;;;97.85;91.13;;;;;;;;;;5022595;27;99666;-58
2023/09/13 13:21:53;;;;;;;95.53;88.78;;;;;;;;;;5009741;27;97790;-58
2023/09/13 13:24:23;;;;;;;98.78;91.20;;;;;;;;;;5008752;27;99487;-59
2023/09/13 13:26:49;;;;;;;200.45;184.13;;;;;;;;;;5011861;27;99692;-59
2023/09/13 13:29:16;;;;;;;344.27;314.73;;;;;;;;;;5012171;27;100767;-59
2023/09/13 13:31:42;;;;;;;295.02;269.60;;;;;;;;;;5014153;27;99554;-57
2023/09/13 13:34:08;;;;;;;272.63;249.77;;;;;;;;;;5007769;27;98471;-59
2023/09/13 13:36:35;;;;;;;290.88;266.00;;;;;;;;;;5007325;27;99633;-59
2023/09/13 13:39:05;;;;;;;357.42;327.38;;;;;;;;;;5012147;27;99550;-58
2023/09/13 13:41:32;;;;;;;191.55;175.45;;;;;;;;;;5012281;27;98800;-58
2023/09/13 13:44:00;;;;;;;180.57;166.55;;;;;;;;;;5006783;27;100388;-59
2023/09/13 13:46:28;;;;;;;219.35;202.48;;;;;;;;;;5008868;27;99818;-59
2023/09/13 13:48:55;;;;;;;;;;;;;;;;;;5010806;27;98664;-59
2023/09/13 13:51:21;;;;;;;235.25;216.25;;;;;;;;;;5012672;27;130278;-59
2023/09/13 13:53:48;;;;;;;232.23;212.43;;;;;;;;;;5016124;27;99483;-59
2023/09/13 13:56:15;;;;;;;278.98;256.42;;;;;;;;;;5007134;27;100134;-59
2023/09/13 13:58:42;;;;;;;302.23;276.92;;;;;;;;;;5010844;27;99560;-59
2023/09/13 14:01:08;;;;;;;357.05;326.08;;;;;;;;;;5010541;27;98814;-60
2023/09/13 14:03:34;;;;;;;355.45;326.25;;;;;;;;;;5011865;27;100488;-59
2023/09/13 14:06:03;;;;;;;394.83;363.08;;;;;;;;;;5006640;27;100601;-59
2023/09/13 14:08:29;;;;;;;424.60;389.20;;;;;;;;;;5010517;27;98680;-59
2023/09/13 14:10:56;;;;;;;373.73;341.92;;;;;;;;;;5007014;27;98780;-59
2023/09/13 14:13:24;;;;;;;305.35;279.60;;;;;;;;;;5006256;27;98544;-60
2023/09/13 14:15:50;;;;;;;247.70;227.57;;;;;;;;;;5012917;27;99419;-59
2023/09/13 14:18:17;;;;;;;303.02;277.55;;;;;;;;;;5012735;27;100330;-59
2023/09/13 14:20:45;;;;;;;421.77;384.98;;;;;;;;;;5012247;27;98774;-59
2023/09/13 14:23:12;;;;;;;457.17;419.40;;;;;;;;;;5009440;27;99473;-59
2023/09/13 14:25:39;;;;;;;345.98;315.67;;;;;;;;;;5007049;27;99505;-59
2023/09/13 14:28:05;;;;;;;342.50;313.63;;;;;;;;;;5007299;27;98580;-59
2023/09/13 14:30:37;;;;;;;298.63;273.88;;;;;;;;;;5009901;27;99849;-60